sensor_id;sensor_type;location;lat;lon;timestamp;P1;durP1;ratioP1;P2;durP2;ratioP2
44985;SDS011;30721;49.380;7.736;2024-01-11T00:01:12;30.80;;;14.85;;
44985;SDS011;30721;49.380;7.736;2024-01-11T00:03:37;31.35;;;14.60;;
44985;SDS011;30721;49.380;7.736;2024-01-11T00:06:03;30.73;;;15.82;;
44985;SDS011;30721;49.380;7.736;2024-01-11T00:08:29;30.63;;;15.50;;
44985;SDS011;30721;49.380;7.736;2024-01-11T00:10:55;36.13;;;15.50;;
44985;SDS011;30721;49.380;7.736;2024-01-11T00:13:20;36.15;;;15.55;;
44985;SDS011;30721;49.380;7.736;2024-01-11T00:15:46;34.60;;;14.52;;
44985;SDS011;30721;49.380;7.736;2024-01-11T00:18:11;34.03;;;15.20;;
44985;SDS011;30721;49.380;7.736;2024-01-11T00:20:37;29.08;;;13.98;;
44985;SDS011;30721;49.380;7.736;2024-01-11T00:23:02;33.08;;;14.80;;
44985;SDS011;30721;49.380;7.736;2024-01-11T00:25:28;28.63;;;14.95;;
44985;SDS011;30721;49.380;7.736;2024-01-11T00:27:53;31.27;;;15.10;;
44985;SDS011;30721;49.380;7.736;2024-01-11T00:30:18;30.80;;;14.80;;
44985;SDS011;30721;49.380;7.736;2024-01-11T00:32:44;31.98;;;14.07;;
44985;SDS011;30721;49.380;7.736;2024-01-11T00:35:09;31.55;;;15.48;;
44985;SDS011;30721;49.380;7.736;2024-01-11T00:37:34;29.20;;;14.35;;
44985;SDS011;30721;49.380;7.736;2024-01-11T00:40:00;27.77;;;13.98;;
44985;SDS011;30721;49.380;7.736;2024-01-11T00:42:25;29.85;;;12.55;;
44985;SDS011;30721;49.380;7.736;2024-01-11T00:44:50;30.13;;;13.52;;
44985;SDS011;30721;49.380;7.736;2024-01-11T00:47:16;32.35;;;15.02;;
44985;SDS011;30721;49.380;7.736;2024-01-11T00:49:42;32.92;;;14.63;;
44985;SDS011;30721;49.380;7.736;2024-01-11T00:52:08;32.20;;;14.77;;
44985;SDS011;30721;49.380;7.736;2024-01-11T00:54:34;30.02;;;12.82;;
44985;SDS011;30721;49.380;7.736;2024-01-11T00:57:00;33.47;;;15.23;;
44985;SDS011;30721;49.380;7.736;2024-01-11T00:59:26;35.22;;;15.93;;
44985;SDS011;30721;49.380;7.736;2024-01-11T01:01:51;31.95;;;13.82;;
44985;SDS011;30721;49.380;7.736;2024-01-11T01:04:17;34.47;;;14.45;;
44985;SDS011;30721;49.380;7.736;2024-01-11T01:06:42;33.38;;;14.18;;
44985;SDS011;30721;49.380;7.736;2024-01-11T01:09:08;28.25;;;14.88;;
44985;SDS011;30721;49.380;7.736;2024-01-11T01:11:33;32.30;;;14.60;;
44985;SDS011;30721;49.380;7.736;2024-01-11T01:13:59;29.85;;;15.00;;
44985;SDS011;30721;49.380;7.736;2024-01-11T01:16:24;33.38;;;13.98;;
44985;SDS011;30721;49.380;7.736;2024-01-11T01:18:49;34.90;;;16.42;;
44985;SDS011;30721;49.380;7.736;2024-01-11T01:21:15;28.55;;;14.35;;
44985;SDS011;30721;49.380;7.736;2024-01-11T01:23:40;34.05;;;14.75;;
44985;SDS011;30721;49.380;7.736;2024-01-11T01:26:06;32.25;;;15.52;;
44985;SDS011;30721;49.380;7.736;2024-01-11T01:28:31;33.65;;;15.10;;
44985;SDS011;30721;49.380;7.736;2024-01-11T01:30:57;37.28;;;16.08;;
44985;SDS011;30721;49.380;7.736;2024-01-11T01:33:22;42.92;;;18.77;;
44985;SDS011;30721;49.380;7.736;2024-01-11T01:35:48;37.70;;;17.83;;
44985;SDS011;30721;49.380;7.736;2024-01-11T01:38:13;30.95;;;15.77;;
44985;SDS011;30721;49.380;7.736;2024-01-11T01:40:39;36.40;;;16.50;;
44985;SDS011;30721;49.380;7.736;2024-01-11T01:43:06;35.78;;;16.33;;
44985;SDS011;30721;49.380;7.736;2024-01-11T01:45:32;34.10;;;14.90;;
44985;SDS011;30721;49.380;7.736;2024-01-11T01:47:58;28.75;;;14.02;;
44985;SDS011;30721;49.380;7.736;2024-01-11T01:50:23;29.02;;;14.48;;
44985;SDS011;30721;49.380;7.736;2024-01-11T01:52:48;32.38;;;15.38;;
44985;SDS011;30721;49.380;7.736;2024-01-11T01:55:16;32.10;;;14.10;;
44985;SDS011;30721;49.380;7.736;2024-01-11T01:57:42;31.33;;;15.73;;
44985;SDS011;30721;49.380;7.736;2024-01-11T02:00:09;30.58;;;14.90;;
44985;SDS011;30721;49.380;7.736;2024-01-11T02:02:36;31.10;;;13.85;;
44985;SDS011;30721;49.380;7.736;2024-01-11T02:05:03;32.47;;;15.43;;
44985;SDS011;30721;49.380;7.736;2024-01-11T02:07:29;36.42;;;14.85;;
44985;SDS011;30721;49.380;7.736;2024-01-11T02:09:55;37.03;;;16.85;;
44985;SDS011;30721;49.380;7.736;2024-01-11T02:12:20;39.17;;;16.88;;
44985;SDS011;30721;49.380;7.736;2024-01-11T02:14:46;32.85;;;14.50;;
44985;SDS011;30721;49.380;7.736;2024-01-11T02:17:11;37.78;;;15.32;;
44985;SDS011;30721;49.380;7.736;2024-01-11T02:19:37;34.67;;;15.30;;
44985;SDS011;30721;49.380;7.736;2024-01-11T02:22:08;36.58;;;15.52;;
44985;SDS011;30721;49.380;7.736;2024-01-11T02:24:52;35.92;;;15.95;;
44985;SDS011;30721;49.380;7.736;2024-01-11T02:27:18;36.05;;;15.50;;
44985;SDS011;30721;49.380;7.736;2024-01-11T02:29:43;35.28;;;14.98;;
44985;SDS011;30721;49.380;7.736;2024-01-11T02:32:08;34.95;;;15.18;;
44985;SDS011;30721;49.380;7.736;2024-01-11T02:34:34;34.45;;;15.93;;
44985;SDS011;30721;49.380;7.736;2024-01-11T02:37:00;35.47;;;16.40;;
44985;SDS011;30721;49.380;7.736;2024-01-11T02:39:26;36.47;;;16.55;;
44985;SDS011;30721;49.380;7.736;2024-01-11T02:41:52;39.30;;;15.20;;
44985;SDS011;30721;49.380;7.736;2024-01-11T02:44:19;34.60;;;15.40;;
44985;SDS011;30721;49.380;7.736;2024-01-11T02:46:44;35.55;;;15.80;;
44985;SDS011;30721;49.380;7.736;2024-01-11T02:49:09;34.05;;;15.63;;
44985;SDS011;30721;49.380;7.736;2024-01-11T02:51:35;37.83;;;15.80;;
44985;SDS011;30721;49.380;7.736;2024-01-11T02:54:01;31.77;;;15.02;;
44985;SDS011;30721;49.380;7.736;2024-01-11T02:56:27;37.80;;;14.80;;
44985;SDS011;30721;49.380;7.736;2024-01-11T02:58:52;36.83;;;15.90;;
44985;SDS011;30721;49.380;7.736;2024-01-11T03:01:18;34.67;;;15.95;;
44985;SDS011;30721;49.380;7.736;2024-01-11T03:03:43;35.63;;;16.67;;
44985;SDS011;30721;49.380;7.736;2024-01-11T03:06:08;33.58;;;16.40;;
44985;SDS011;30721;49.380;7.736;2024-01-11T03:08:34;32.92;;;14.80;;
44985;SDS011;30721;49.380;7.736;2024-01-11T03:10:59;36.47;;;16.33;;
44985;SDS011;30721;49.380;7.736;2024-01-11T03:13:24;31.00;;;15.73;;
44985;SDS011;30721;49.380;7.736;2024-01-11T03:15:52;36.30;;;15.93;;
44985;SDS011;30721;49.380;7.736;2024-01-11T03:18:17;36.85;;;17.33;;
44985;SDS011;30721;49.380;7.736;2024-01-11T03:20:43;35.58;;;16.55;;
44985;SDS011;30721;49.380;7.736;2024-01-11T03:23:08;38.95;;;16.58;;
44985;SDS011;30721;49.380;7.736;2024-01-11T03:25:33;35.75;;;15.75;;
44985;SDS011;30721;49.380;7.736;2024-01-11T03:27:59;34.00;;;14.98;;
44985;SDS011;30721;49.380;7.736;2024-01-11T03:30:24;32.92;;;15.25;;
44985;SDS011;30721;49.380;7.736;2024-01-11T03:32:52;36.03;;;16.77;;
44985;SDS011;30721;49.380;7.736;2024-01-11T03:35:18;34.80;;;15.70;;
44985;SDS011;30721;49.380;7.736;2024-01-11T03:37:44;35.72;;;16.15;;
44985;SDS011;30721;49.380;7.736;2024-01-11T03:40:12;37.60;;;16.42;;
44985;SDS011;30721;49.380;7.736;2024-01-11T03:42:39;33.58;;;15.05;;
44985;SDS011;30721;49.380;7.736;2024-01-11T03:45:04;35.53;;;16.10;;
44985;SDS011;30721;49.380;7.736;2024-01-11T03:47:30;36.75;;;15.70;;
44985;SDS011;30721;49.380;7.736;2024-01-11T03:49:56;37.95;;;16.63;;
44985;SDS011;30721;49.380;7.736;2024-01-11T03:52:21;33.95;;;15.20;;
44985;SDS011;30721;49.380;7.736;2024-01-11T03:54:46;35.92;;;17.15;;
44985;SDS011;30721;49.380;7.736;2024-01-11T03:57:12;38.15;;;16.98;;
44985;SDS011;30721;49.380;7.736;2024-01-11T03:59:37;35.40;;;16.02;;
44985;SDS011;30721;49.380;7.736;2024-01-11T04:02:03;35.55;;;16.55;;
44985;SDS011;30721;49.380;7.736;2024-01-11T04:04:28;36.17;;;15.45;;
44985;SDS011;30721;49.380;7.736;2024-01-11T04:06:54;36.35;;;15.75;;
44985;SDS011;30721;49.380;7.736;2024-01-11T04:09:19;38.17;;;17.02;;
44985;SDS011;30721;49.380;7.736;2024-01-11T04:11:45;31.73;;;15.20;;
44985;SDS011;30721;49.380;7.736;2024-01-11T04:14:11;39.35;;;17.40;;
44985;SDS011;30721;49.380;7.736;2024-01-11T04:16:39;37.10;;;16.10;;
44985;SDS011;30721;49.380;7.736;2024-01-11T04:19:06;40.45;;;17.08;;
44985;SDS011;30721;49.380;7.736;2024-01-11T04:21:32;34.75;;;15.60;;
44985;SDS011;30721;49.380;7.736;2024-01-11T04:23:57;34.75;;;16.70;;
44985;SDS011;30721;49.380;7.736;2024-01-11T04:26:22;35.67;;;15.93;;
44985;SDS011;30721;49.380;7.736;2024-01-11T04:28:48;32.38;;;15.13;;
44985;SDS011;30721;49.380;7.736;2024-01-11T04:31:14;33.42;;;16.38;;
44985;SDS011;30721;49.380;7.736;2024-01-11T04:33:42;34.72;;;16.42;;
44985;SDS011;30721;49.380;7.736;2024-01-11T04:36:08;38.25;;;15.38;;
44985;SDS011;30721;49.380;7.736;2024-01-11T04:38:34;37.42;;;15.25;;
44985;SDS011;30721;49.380;7.736;2024-01-11T04:40:59;29.63;;;16.38;;
44985;SDS011;30721;49.380;7.736;2024-01-11T04:43:25;39.80;;;17.15;;
44985;SDS011;30721;49.380;7.736;2024-01-11T04:45:51;56.50;;;22.40;;
44985;SDS011;30721;49.380;7.736;2024-01-11T04:48:16;101.60;;;40.42;;
44985;SDS011;30721;49.380;7.736;2024-01-11T04:50:42;122.03;;;45.45;;
44985;SDS011;30721;49.380;7.736;2024-01-11T04:53:08;77.93;;;30.35;;
44985;SDS011;30721;49.380;7.736;2024-01-11T04:55:34;62.10;;;27.20;;
44985;SDS011;30721;49.380;7.736;2024-01-11T04:57:59;48.20;;;22.33;;
44985;SDS011;30721;49.380;7.736;2024-01-11T05:00:24;37.00;;;16.85;;
44985;SDS011;30721;49.380;7.736;2024-01-11T05:02:50;38.10;;;18.13;;
44985;SDS011;30721;49.380;7.736;2024-01-11T05:05:15;34.13;;;14.90;;
44985;SDS011;30721;49.380;7.736;2024-01-11T05:07:40;38.65;;;16.70;;
44985;SDS011;30721;49.380;7.736;2024-01-11T05:10:06;37.20;;;17.45;;
44985;SDS011;30721;49.380;7.736;2024-01-11T05:12:32;34.58;;;15.88;;
44985;SDS011;30721;49.380;7.736;2024-01-11T05:14:58;32.22;;;17.23;;
44985;SDS011;30721;49.380;7.736;2024-01-11T05:17:23;41.17;;;17.90;;
44985;SDS011;30721;49.380;7.736;2024-01-11T05:19:49;34.10;;;16.60;;
44985;SDS011;30721;49.380;7.736;2024-01-11T05:22:15;36.40;;;17.75;;
44985;SDS011;30721;49.380;7.736;2024-01-11T05:24:40;38.13;;;17.48;;
44985;SDS011;30721;49.380;7.736;2024-01-11T05:27:05;42.55;;;17.88;;
44985;SDS011;30721;49.380;7.736;2024-01-11T05:29:31;37.28;;;16.90;;
44985;SDS011;30721;49.380;7.736;2024-01-11T05:31:57;51.67;;;18.90;;
44985;SDS011;30721;49.380;7.736;2024-01-11T05:34:23;37.42;;;18.17;;
44985;SDS011;30721;49.380;7.736;2024-01-11T05:36:49;56.75;;;20.15;;
44985;SDS011;30721;49.380;7.736;2024-01-11T05:39:14;38.35;;;18.20;;
44985;SDS011;30721;49.380;7.736;2024-01-11T05:41:42;42.55;;;17.88;;
44985;SDS011;30721;49.380;7.736;2024-01-11T05:44:08;38.88;;;18.08;;
44985;SDS011;30721;49.380;7.736;2024-01-11T05:46:34;45.28;;;18.48;;
44985;SDS011;30721;49.380;7.736;2024-01-11T05:48:59;38.85;;;17.77;;
44985;SDS011;30721;49.380;7.736;2024-01-11T05:51:24;38.97;;;17.52;;
44985;SDS011;30721;49.380;7.736;2024-01-11T05:53:50;45.88;;;18.38;;
44985;SDS011;30721;49.380;7.736;2024-01-11T05:56:15;43.28;;;19.50;;
44985;SDS011;30721;49.380;7.736;2024-01-11T05:58:40;51.90;;;21.73;;
44985;SDS011;30721;49.380;7.736;2024-01-11T06:01:06;44.75;;;20.77;;
44985;SDS011;30721;49.380;7.736;2024-01-11T06:03:31;47.08;;;20.00;;
44985;SDS011;30721;49.380;7.736;2024-01-11T06:05:59;39.60;;;17.67;;
44985;SDS011;30721;49.380;7.736;2024-01-11T06:08:25;41.10;;;18.38;;
44985;SDS011;30721;49.380;7.736;2024-01-11T06:10:51;35.70;;;17.55;;
44985;SDS011;30721;49.380;7.736;2024-01-11T06:13:17;35.53;;;16.05;;
44985;SDS011;30721;49.380;7.736;2024-01-11T06:15:43;44.95;;;19.52;;
44985;SDS011;30721;49.380;7.736;2024-01-11T06:18:09;37.95;;;16.50;;
44985;SDS011;30721;49.380;7.736;2024-01-11T06:20:34;33.13;;;16.67;;
44985;SDS011;30721;49.380;7.736;2024-01-11T06:22:59;34.50;;;16.27;;
44985;SDS011;30721;49.380;7.736;2024-01-11T06:25:25;35.88;;;15.70;;
44985;SDS011;30721;49.380;7.736;2024-01-11T06:27:50;40.40;;;17.25;;
44985;SDS011;30721;49.380;7.736;2024-01-11T06:30:15;55.97;;;20.20;;
44985;SDS011;30721;49.380;7.736;2024-01-11T06:32:41;45.83;;;19.05;;
44985;SDS011;30721;49.380;7.736;2024-01-11T06:35:06;36.05;;;16.67;;
44985;SDS011;30721;49.380;7.736;2024-01-11T06:37:32;38.30;;;17.85;;
44985;SDS011;30721;49.380;7.736;2024-01-11T06:39:57;36.58;;;17.75;;
44985;SDS011;30721;49.380;7.736;2024-01-11T06:42:23;45.38;;;19.58;;
44985;SDS011;30721;49.380;7.736;2024-01-11T06:44:48;47.90;;;23.95;;
44985;SDS011;30721;49.380;7.736;2024-01-11T06:47:13;117.28;;;47.60;;
44985;SDS011;30721;49.380;7.736;2024-01-11T06:49:39;91.63;;;40.42;;
44985;SDS011;30721;49.380;7.736;2024-01-11T06:52:06;62.95;;;29.27;;
44985;SDS011;30721;49.380;7.736;2024-01-11T06:54:31;53.88;;;28.00;;
44985;SDS011;30721;49.380;7.736;2024-01-11T06:56:57;45.63;;;20.73;;
44985;SDS011;30721;49.380;7.736;2024-01-11T06:59:22;38.15;;;19.23;;
44985;SDS011;30721;49.380;7.736;2024-01-11T07:01:48;44.08;;;20.45;;
44985;SDS011;30721;49.380;7.736;2024-01-11T07:04:14;35.47;;;17.92;;
44985;SDS011;30721;49.380;7.736;2024-01-11T07:06:40;40.72;;;16.67;;
44985;SDS011;30721;49.380;7.736;2024-01-11T07:09:05;38.05;;;18.15;;
44985;SDS011;30721;49.380;7.736;2024-01-11T07:11:31;39.03;;;16.38;;
44985;SDS011;30721;49.380;7.736;2024-01-11T07:13:57;38.08;;;17.73;;
44985;SDS011;30721;49.380;7.736;2024-01-11T07:16:23;37.72;;;18.48;;
44985;SDS011;30721;49.380;7.736;2024-01-11T07:18:48;42.40;;;19.55;;
44985;SDS011;30721;49.380;7.736;2024-01-11T07:21:24;38.35;;;16.45;;
44985;SDS011;30721;49.380;7.736;2024-01-11T07:23:57;39.22;;;18.08;;
44985;SDS011;30721;49.380;7.736;2024-01-11T07:26:25;40.47;;;18.85;;
44985;SDS011;30721;49.380;7.736;2024-01-11T07:28:51;49.13;;;18.98;;
44985;SDS011;30721;49.380;7.736;2024-01-11T07:31:20;42.90;;;19.88;;
44985;SDS011;30721;49.380;7.736;2024-01-11T07:33:45;40.03;;;19.20;;
44985;SDS011;30721;49.380;7.736;2024-01-11T07:36:11;40.38;;;20.45;;
44985;SDS011;30721;49.380;7.736;2024-01-11T07:38:36;38.92;;;17.65;;
44985;SDS011;30721;49.380;7.736;2024-01-11T07:41:02;36.83;;;16.80;;
44985;SDS011;30721;49.380;7.736;2024-01-11T07:43:27;42.13;;;18.73;;
44985;SDS011;30721;49.380;7.736;2024-01-11T07:45:54;37.90;;;16.80;;
44985;SDS011;30721;49.380;7.736;2024-01-11T07:48:21;38.58;;;17.48;;
44985;SDS011;30721;49.380;7.736;2024-01-11T07:50:48;45.65;;;20.50;;
44985;SDS011;30721;49.380;7.736;2024-01-11T07:53:13;85.10;;;30.52;;
44985;SDS011;30721;49.380;7.736;2024-01-11T07:55:40;67.00;;;23.98;;
44985;SDS011;30721;49.380;7.736;2024-01-11T07:58:05;57.08;;;23.98;;
44985;SDS011;30721;49.380;7.736;2024-01-11T08:00:30;37.80;;;17.65;;
44985;SDS011;30721;49.380;7.736;2024-01-11T08:02:56;59.13;;;24.45;;
44985;SDS011;30721;49.380;7.736;2024-01-11T08:05:21;69.00;;;24.58;;
44985;SDS011;30721;49.380;7.736;2024-01-11T08:07:46;56.97;;;23.58;;
44985;SDS011;30721;49.380;7.736;2024-01-11T08:10:12;55.05;;;22.73;;
44985;SDS011;30721;49.380;7.736;2024-01-11T08:12:38;59.67;;;22.90;;
44985;SDS011;30721;49.380;7.736;2024-01-11T08:15:04;41.95;;;17.55;;
44985;SDS011;30721;49.380;7.736;2024-01-11T08:17:30;37.88;;;16.52;;
44985;SDS011;30721;49.380;7.736;2024-01-11T08:19:55;36.13;;;16.60;;
44985;SDS011;30721;49.380;7.736;2024-01-11T08:22:22;38.60;;;17.27;;
44985;SDS011;30721;49.380;7.736;2024-01-11T08:24:48;36.08;;;16.85;;
44985;SDS011;30721;49.380;7.736;2024-01-11T08:27:13;35.70;;;17.27;;
44985;SDS011;30721;49.380;7.736;2024-01-11T08:29:42;37.35;;;16.90;;
44985;SDS011;30721;49.380;7.736;2024-01-11T08:32:08;39.90;;;17.58;;
44985;SDS011;30721;49.380;7.736;2024-01-11T08:34:34;38.30;;;17.55;;
44985;SDS011;30721;49.380;7.736;2024-01-11T08:36:59;38.78;;;17.08;;
44985;SDS011;30721;49.380;7.736;2024-01-11T08:39:24;40.92;;;17.73;;
44985;SDS011;30721;49.380;7.736;2024-01-11T08:41:50;37.22;;;15.95;;
44985;SDS011;30721;49.380;7.736;2024-01-11T08:44:15;37.47;;;17.83;;
44985;SDS011;30721;49.380;7.736;2024-01-11T08:46:40;37.72;;;16.80;;
44985;SDS011;30721;49.380;7.736;2024-01-11T08:49:06;39.78;;;17.70;;
44985;SDS011;30721;49.380;7.736;2024-01-11T08:51:32;40.00;;;17.40;;
44985;SDS011;30721;49.380;7.736;2024-01-11T08:53:57;40.10;;;17.65;;
44985;SDS011;30721;49.380;7.736;2024-01-11T08:56:23;39.08;;;17.05;;
44985;SDS011;30721;49.380;7.736;2024-01-11T08:58:48;33.92;;;16.90;;
44985;SDS011;30721;49.380;7.736;2024-01-11T09:01:17;41.92;;;18.10;;
44985;SDS011;30721;49.380;7.736;2024-01-11T09:03:43;38.88;;;16.70;;
44985;SDS011;30721;49.380;7.736;2024-01-11T09:06:08;43.20;;;18.05;;
44985;SDS011;30721;49.380;7.736;2024-01-11T09:08:35;39.92;;;17.83;;
44985;SDS011;30721;49.380;7.736;2024-01-11T09:11:00;43.92;;;18.23;;
44985;SDS011;30721;49.380;7.736;2024-01-11T09:13:26;35.60;;;16.83;;
44985;SDS011;30721;49.380;7.736;2024-01-11T09:15:52;40.45;;;17.67;;
44985;SDS011;30721;49.380;7.736;2024-01-11T09:18:19;43.80;;;19.50;;
44985;SDS011;30721;49.380;7.736;2024-01-11T09:20:44;39.80;;;17.58;;
44985;SDS011;30721;49.380;7.736;2024-01-11T09:23:11;39.50;;;16.90;;
44985;SDS011;30721;49.380;7.736;2024-01-11T09:25:36;40.08;;;17.73;;
44985;SDS011;30721;49.380;7.736;2024-01-11T09:28:02;38.08;;;17.30;;
44985;SDS011;30721;49.380;7.736;2024-01-11T09:30:28;44.20;;;18.67;;
44985;SDS011;30721;49.380;7.736;2024-01-11T09:32:53;37.90;;;17.27;;
44985;SDS011;30721;49.380;7.736;2024-01-11T09:35:19;38.88;;;16.40;;
44985;SDS011;30721;49.380;7.736;2024-01-11T09:37:45;41.80;;;17.98;;
44985;SDS011;30721;49.380;7.736;2024-01-11T09:40:11;43.25;;;19.45;;
44985;SDS011;30721;49.380;7.736;2024-01-11T09:42:37;36.90;;;15.75;;
44985;SDS011;30721;49.380;7.736;2024-01-11T09:45:13;37.85;;;17.05;;
44985;SDS011;30721;49.380;7.736;2024-01-11T09:47:40;41.72;;;18.75;;
44985;SDS011;30721;49.380;7.736;2024-01-11T09:50:06;37.95;;;16.77;;
44985;SDS011;30721;49.380;7.736;2024-01-11T09:52:32;37.38;;;16.35;;
44985;SDS011;30721;49.380;7.736;2024-01-11T09:54:58;38.90;;;15.63;;
44985;SDS011;30721;49.380;7.736;2024-01-11T09:57:26;40.35;;;16.95;;
44985;SDS011;30721;49.380;7.736;2024-01-11T09:59:54;44.35;;;16.58;;
44985;SDS011;30721;49.380;7.736;2024-01-11T10:02:21;35.33;;;17.23;;
44985;SDS011;30721;49.380;7.736;2024-01-11T10:04:52;36.63;;;15.38;;
44985;SDS011;30721;49.380;7.736;2024-01-11T10:07:18;37.55;;;16.02;;
44985;SDS011;30721;49.380;7.736;2024-01-11T10:09:45;39.35;;;17.95;;
44985;SDS011;30721;49.380;7.736;2024-01-11T10:12:11;37.03;;;16.63;;
44985;SDS011;30721;49.380;7.736;2024-01-11T10:14:36;35.15;;;15.70;;
44985;SDS011;30721;49.380;7.736;2024-01-11T10:17:02;32.03;;;15.35;;
44985;SDS011;30721;49.380;7.736;2024-01-11T10:19:28;31.40;;;15.13;;
44985;SDS011;30721;49.380;7.736;2024-01-11T10:21:54;37.47;;;16.40;;
44985;SDS011;30721;49.380;7.736;2024-01-11T10:24:19;39.90;;;16.88;;
44985;SDS011;30721;49.380;7.736;2024-01-11T10:26:51;37.33;;;15.93;;
44985;SDS011;30721;49.380;7.736;2024-01-11T10:29:33;36.97;;;17.83;;
44985;SDS011;30721;49.380;7.736;2024-01-11T10:31:58;32.00;;;15.90;;
44985;SDS011;30721;49.380;7.736;2024-01-11T10:34:24;31.17;;;15.98;;
44985;SDS011;30721;49.380;7.736;2024-01-11T10:36:53;36.30;;;17.35;;
44985;SDS011;30721;49.380;7.736;2024-01-11T10:39:18;38.40;;;18.02;;
44985;SDS011;30721;49.380;7.736;2024-01-11T10:41:50;34.70;;;15.93;;
44985;SDS011;30721;49.380;7.736;2024-01-11T10:44:18;35.88;;;16.17;;
44985;SDS011;30721;49.380;7.736;2024-01-11T10:46:45;36.08;;;16.25;;
44985;SDS011;30721;49.380;7.736;2024-01-11T10:49:11;38.40;;;16.85;;
44985;SDS011;30721;49.380;7.736;2024-01-11T10:51:36;33.58;;;15.68;;
44985;SDS011;30721;49.380;7.736;2024-01-11T10:54:03;34.60;;;15.32;;
44985;SDS011;30721;49.380;7.736;2024-01-11T10:56:29;33.25;;;15.98;;
44985;SDS011;30721;49.380;7.736;2024-01-11T10:58:56;36.40;;;17.85;;
44985;SDS011;30721;49.380;7.736;2024-01-11T11:01:22;35.15;;;16.38;;
44985;SDS011;30721;49.380;7.736;2024-01-11T11:03:48;37.40;;;17.48;;
44985;SDS011;30721;49.380;7.736;2024-01-11T11:06:13;37.35;;;16.95;;
44985;SDS011;30721;49.380;7.736;2024-01-11T11:08:39;38.63;;;17.02;;
44985;SDS011;30721;49.380;7.736;2024-01-11T11:11:05;33.65;;;16.20;;
44985;SDS011;30721;49.380;7.736;2024-01-11T11:13:32;36.00;;;15.43;;
44985;SDS011;30721;49.380;7.736;2024-01-11T11:16:00;36.38;;;16.33;;
44985;SDS011;30721;49.380;7.736;2024-01-11T11:18:25;31.95;;;15.52;;
44985;SDS011;30721;49.380;7.736;2024-01-11T11:20:51;34.42;;;16.02;;
44985;SDS011;30721;49.380;7.736;2024-01-11T11:23:17;32.55;;;16.10;;
44985;SDS011;30721;49.380;7.736;2024-01-11T11:25:47;32.05;;;14.90;;
44985;SDS011;30721;49.380;7.736;2024-01-11T11:28:13;34.80;;;16.23;;
44985;SDS011;30721;49.380;7.736;2024-01-11T11:30:40;27.75;;;13.73;;
44985;SDS011;30721;49.380;7.736;2024-01-11T11:33:09;31.70;;;15.50;;
44985;SDS011;30721;49.380;7.736;2024-01-11T11:35:40;30.48;;;15.48;;
44985;SDS011;30721;49.380;7.736;2024-01-11T11:38:06;33.35;;;15.25;;
44985;SDS011;30721;49.380;7.736;2024-01-11T11:40:38;34.88;;;16.10;;
44985;SDS011;30721;49.380;7.736;2024-01-11T11:43:08;29.92;;;13.43;;
44985;SDS011;30721;49.380;7.736;2024-01-11T11:45:34;29.80;;;14.75;;
44985;SDS011;30721;49.380;7.736;2024-01-11T11:48:00;37.50;;;16.42;;
44985;SDS011;30721;49.380;7.736;2024-01-11T11:50:25;36.25;;;16.98;;
44985;SDS011;30721;49.380;7.736;2024-01-11T11:52:55;31.88;;;15.13;;
44985;SDS011;30721;49.380;7.736;2024-01-11T11:55:23;32.88;;;14.57;;
44985;SDS011;30721;49.380;7.736;2024-01-11T11:57:53;34.78;;;16.45;;
44985;SDS011;30721;49.380;7.736;2024-01-11T12:00:19;36.25;;;17.13;;
44985;SDS011;30721;49.380;7.736;2024-01-11T12:02:46;34.53;;;17.00;;
44985;SDS011;30721;49.380;7.736;2024-01-11T12:05:12;44.53;;;23.13;;
44985;SDS011;30721;49.380;7.736;2024-01-11T12:07:38;34.63;;;16.40;;
44985;SDS011;30721;49.380;7.736;2024-01-11T12:10:06;29.48;;;15.32;;
44985;SDS011;30721;49.380;7.736;2024-01-11T12:12:31;27.88;;;14.82;;
44985;SDS011;30721;49.380;7.736;2024-01-11T12:14:59;34.08;;;15.77;;
44985;SDS011;30721;49.380;7.736;2024-01-11T12:17:24;29.58;;;14.32;;
44985;SDS011;30721;49.380;7.736;2024-01-11T12:19:51;28.58;;;14.40;;
44985;SDS011;30721;49.380;7.736;2024-01-11T12:22:16;32.75;;;14.82;;
44985;SDS011;30721;49.380;7.736;2024-01-11T12:24:42;28.83;;;14.95;;
44985;SDS011;30721;49.380;7.736;2024-01-11T12:27:07;29.05;;;14.70;;
44985;SDS011;30721;49.380;7.736;2024-01-11T12:29:33;27.35;;;13.45;;
44985;SDS011;30721;49.380;7.736;2024-01-11T12:31:59;26.50;;;13.95;;
44985;SDS011;30721;49.380;7.736;2024-01-11T12:34:25;28.10;;;14.80;;
44985;SDS011;30721;49.380;7.736;2024-01-11T12:36:51;30.63;;;15.77;;
44985;SDS011;30721;49.380;7.736;2024-01-11T12:39:18;31.60;;;15.85;;
44985;SDS011;30721;49.380;7.736;2024-01-11T12:41:44;30.40;;;14.23;;
44985;SDS011;30721;49.380;7.736;2024-01-11T12:44:09;31.50;;;15.40;;
44985;SDS011;30721;49.380;7.736;2024-01-11T12:46:35;28.75;;;13.88;;
44985;SDS011;30721;49.380;7.736;2024-01-11T12:49:00;31.65;;;15.02;;
44985;SDS011;30721;49.380;7.736;2024-01-11T12:51:26;25.63;;;12.93;;
44985;SDS011;30721;49.380;7.736;2024-01-11T12:53:52;25.65;;;13.30;;
44985;SDS011;30721;49.380;7.736;2024-01-11T12:56:18;30.80;;;13.50;;
44985;SDS011;30721;49.380;7.736;2024-01-11T12:58:44;28.17;;;12.85;;
44985;SDS011;30721;49.380;7.736;2024-01-11T13:01:11;25.92;;;12.65;;
44985;SDS011;30721;49.380;7.736;2024-01-11T13:03:38;23.25;;;13.05;;
44985;SDS011;30721;49.380;7.736;2024-01-11T13:06:04;25.05;;;12.90;;
44985;SDS011;30721;49.380;7.736;2024-01-11T13:08:30;26.75;;;14.00;;
44985;SDS011;30721;49.380;7.736;2024-01-11T13:10:56;28.35;;;14.38;;
44985;SDS011;30721;49.380;7.736;2024-01-11T13:13:22;25.80;;;12.23;;
44985;SDS011;30721;49.380;7.736;2024-01-11T13:15:47;25.10;;;13.27;;
44985;SDS011;30721;49.380;7.736;2024-01-11T13:18:13;26.25;;;13.00;;
44985;SDS011;30721;49.380;7.736;2024-01-11T13:20:38;24.88;;;12.57;;
44985;SDS011;30721;49.380;7.736;2024-01-11T13:25:43;22.30;;;11.13;;
44985;SDS011;30721;49.380;7.736;2024-01-11T13:28:09;28.65;;;12.63;;
44985;SDS011;30721;49.380;7.736;2024-01-11T13:30:36;25.65;;;11.88;;
44985;SDS011;30721;49.380;7.736;2024-01-11T13:33:03;25.77;;;12.30;;
44985;SDS011;30721;49.380;7.736;2024-01-11T13:35:29;25.50;;;11.55;;
44985;SDS011;30721;49.380;7.736;2024-01-11T13:37:54;25.75;;;12.77;;
44985;SDS011;30721;49.380;7.736;2024-01-11T13:40:20;22.10;;;11.38;;
44985;SDS011;30721;49.380;7.736;2024-01-11T13:42:45;23.65;;;10.48;;
44985;SDS011;30721;49.380;7.736;2024-01-11T13:45:11;23.80;;;11.10;;
44985;SDS011;30721;49.380;7.736;2024-01-11T13:47:37;22.88;;;12.43;;
44985;SDS011;30721;49.380;7.736;2024-01-11T13:50:03;22.83;;;11.63;;
44985;SDS011;30721;49.380;7.736;2024-01-11T13:52:29;21.88;;;10.75;;
44985;SDS011;30721;49.380;7.736;2024-01-11T13:54:54;23.75;;;12.35;;
44985;SDS011;30721;49.380;7.736;2024-01-11T13:57:22;26.83;;;12.98;;
44985;SDS011;30721;49.380;7.736;2024-01-11T13:59:48;25.17;;;12.23;;
44985;SDS011;30721;49.380;7.736;2024-01-11T14:02:14;27.85;;;12.65;;
44985;SDS011;30721;49.380;7.736;2024-01-11T14:04:39;23.33;;;11.45;;
44985;SDS011;30721;49.380;7.736;2024-01-11T14:07:05;24.83;;;12.02;;
44985;SDS011;30721;49.380;7.736;2024-01-11T14:09:31;22.35;;;11.45;;
44985;SDS011;30721;49.380;7.736;2024-01-11T14:11:56;23.77;;;11.05;;
44985;SDS011;30721;49.380;7.736;2024-01-11T14:14:21;27.23;;;13.10;;
44985;SDS011;30721;49.380;7.736;2024-01-11T14:16:47;27.45;;;12.63;;